Stations météo

réclame
Mon MeteoGroup
Fichtelberg, Allemagne (10578): Température de l'air & dewpoint: 14.05.2019 18:00:00 - 20.05.2019 18:00:00 (CEST)Fichtelberg, Allemagne (10578): Température de l'air 5cm & Température de l'air -5cm: 14.05.2019 18:00:00 - 20.05.2019 18:00:00 (CEST)Fichtelberg, Allemagne (10578): Température de l'air -20cm & Température de l'air -100cm: 14.05.2019 18:00:00 - 20.05.2019 18:00:00 (CEST)Fichtelberg, Allemagne (10578): Vitesse du vent & gusts: 14.05.2019 18:00:00 - 20.05.2019 18:00:00 (CEST)Fichtelberg, Allemagne (10578): Direction du vent: 14.05.2019 18:00:00 - 20.05.2019 18:00:00 (CEST)Fichtelberg, Allemagne (10578): visibility: 14.05.2019 18:00:00 - 20.05.2019 18:00:00 (CEST)Fichtelberg, Allemagne (10578): Ensoleillement: 14.05.2019 18:00:00 - 20.05.2019 18:00:00 (CEST)
Date & Time tt [°C] td [°C] tt 5cm [°C] tt -5cm [°C] tt -20cm [°C] tt -100cm [°C] ff [km/h] ff [knt] fx [km/h] fx [knt] dd vv [km] sd [min]
20.05.2019 18:00:00 8,6 8,5 9,0 10,6 9,7 5,2 19 10 24 13 E 0,1 0
20.05.2019 17:00:00 8,8 8,8 9,2 10,4 9,7 5,2 17 9 40 22 ENE 0,1 0
20.05.2019 16:00:00 8,7 8,7 8,5 10,5 9,6 5,2 24 13 43 23 N 0,1 0
20.05.2019 15:00:00 8,9 8,9 8,8 10,8 9,6 5,2 27 15 36 20 NNW 0,1 0
20.05.2019 14:00:00 9,5 9,2 9,4 11,1 9,5 5,1 15 8 22 12 N 1,3 0
20.05.2019 13:00:00 9,9 9,1 10,2 11,1 9,5 5,1 9 5 23 13 NNE 11 0
20.05.2019 12:00:00 10,1 9,9 10,1 11,2 9,4 5,1 10 5 18 10 N 0,1 0
20.05.2019 11:00:00 10,8 8,7 11,1 11,1 9,4 5,1 11 6 19 10 ENE 23 0
20.05.2019 10:00:00 10,7 8,9 11,7 10,4 9,4 5,1 14 8 19 10 E 18 0
20.05.2019 09:00:00 10,0 8,7 10,7 9,7 9,5 5,1 13 7 25 13 E 13 0
20.05.2019 08:00:00 9,7 8,3 9,9 9,2 9,6 5,1 17 9 24 13 E 20 0
20.05.2019 07:00:00 9,3 8,2 9,3 8,8 9,8 5,0 21 11 33 18 E 6 0
20.05.2019 06:00:00 9,0 6,9 8,2 8,8 9,9 5,0 26 14 31 17 E 24 0
20.05.2019 05:00:00 8,5 7,7 7,7 9,1 10,1 5,0 20 11 23 13 E 8 0
20.05.2019 04:00:00 9,0 7,2 8,4 9,3 10,3 5,0 18 10 21 12 E 19 0
20.05.2019 03:00:00 9,0 6,8 8,2 9,4 10,5 5,0 13 7 30 16 E 24 0
20.05.2019 02:00:00 10,3 6,9 9,3 9,7 10,7 5,0 24 13 29 16 E 34 0
20.05.2019 01:00:00 10,1 7,3 8,4 10,0 11,0 5,0 17 9 24 13 E 27 0
20.05.2019 00:00:00 10,4 6,8 8,8 10,5 11,2 5,0 19 10 23 12 ESE 33 0
19.05.2019 23:00:00 10,5 6,6 8,8 11,2 11,4 4,9 22 12 38 21 ESE 33 0
19.05.2019 22:00:00 11,0 6,4 9,5 12,1 11,5 4,9 24 13 32 17 E 40 0
19.05.2019 21:00:00 11,4 6,2 9,8 13,4 11,5 4,9 23 13 35 19 E 43 0
19.05.2019 20:00:00 12,2 7,0 11,1 15,1 11,4 4,9 27 14 39 21 E 38 28
19.05.2019 19:00:00 13,6 8,1 14,0 16,3 11,1 4,9 27 14 36 19 E 28 41
19.05.2019 18:00:00 14,2 8,5 15,4 17,0 10,8 4,9 25 14 37 20 E 26 33
19.05.2019 17:00:00 14,2 8,3 16,2 18,1 10,4 4,9 24 13 32 18 E 24 45
19.05.2019 16:00:00 14,2 7,7 17,0 17,5 10,0 4,9 24 13 38 21 E 33 53
19.05.2019 15:00:00 13,1 7,2 14,8 16,7 9,6 4,9 30 16 41 22 ESE 46 19
19.05.2019 14:00:00 13,0 6,7 14,5 16,8 9,2 4,8 23 12 43 23 ESE 30 39
19.05.2019 13:00:00 12,4 5,7 14,6 15,7 8,8 4,8 20 11 29 16 E 33 36
19.05.2019 12:00:00 12,8 6,2 15,2 14,9 8,5 4,8 21 11 30 16 E 29 60
19.05.2019 11:00:00 12,9 5,6 16,5 13,2 8,3 4,8 16 9 25 14 ESE 26 60
19.05.2019 10:00:00 11,6 6,1 14,7 10,8 8,2 4,8 19 11 30 16 ESE 24 59
19.05.2019 09:00:00 9,4 6,1 11,0 9,0 8,3 4,8 22 12 37 20 ESE 21 60
19.05.2019 08:00:00 8,0 6,9 8,0 8,0 8,4 4,8 27 15 - - E 10 38
19.05.2019 07:00:00 6,6 6,5 6,4 7,9 8,6 4,8 26 14 35 19 E 0,3 7
19.05.2019 06:00:00 6,7 6,7 6,7 7,9 8,7 4,8 23 13 32 18 ESE - 0
19.05.2019 05:00:00 6,7 6,7 6,6 7,9 8,9 4,8 25 13 34 18 E - 0
19.05.2019 04:00:00 6,7 6,7 6,6 7,9 9,1 4,8 26 14 33 18 E - 0
19.05.2019 03:00:00 7,0 6,8 5,9 8,2 9,4 4,8 18 10 24 13 ESE 1,0 0
19.05.2019 02:00:00 7,5 6,9 6,3 8,8 9,6 4,8 21 12 29 16 ESE 4,9 0
19.05.2019 01:00:00 7,9 7,0 6,8 9,4 9,8 4,8 27 14 36 20 ESE 7 0
19.05.2019 00:00:00 8,3 7,0 7,7 9,8 10,0 4,8 27 15 37 20 ESE 10 0
18.05.2019 23:00:00 8,2 6,7 7,4 10,4 10,1 4,8 33 18 39 21 ESE 10 0
18.05.2019 22:00:00 8,7 6,4 7,6 11,4 10,2 4,8 32 18 44 24 E 13 0
18.05.2019 21:00:00 9,0 6,3 8,0 13,0 10,2 4,7 29 16 35 19 E 18 23
18.05.2019 20:00:00 9,8 6,7 9,0 14,9 9,9 4,7 21 11 29 16 E 22 58
18.05.2019 19:00:00 10,5 6,6 11,3 16,4 9,6 4,7 21 12 29 15 ESE 31 60
18.05.2019 18:00:00 11,3 6,9 13,3 17,3 9,1 4,7 20 11 33 18 ESE 38 60
18.05.2019 17:00:00 11,3 6,9 13,8 17,9 8,5 4,7 25 14 33 18 E 42 60
18.05.2019 16:00:00 11,4 6,7 14,0 18,2 7,9 4,7 23 12 31 17 E 36 60
18.05.2019 15:00:00 11,7 6,0 15,6 17,7 7,2 4,7 18 10 26 14 ESE 38 59
18.05.2019 14:00:00 10,4 7,1 14,8 16,7 6,5 4,7 16 9 24 13 E 19 60
18.05.2019 13:00:00 10,5 7,2 15,2 15,2 5,9 4,7 15 8 23 12 ESE 36 60
18.05.2019 12:00:00 8,0 6,3 12,7 13,0 5,5 4,7 15 8 22 12 E 0,9 60
18.05.2019 11:00:00 7,6 6,2 13,1 10,3 5,2 4,7 13 7 18 10 SE 19 53
18.05.2019 10:00:00 5,9 5,8 9,9 8,0 5,1 4,7 12 7 16 8 SE 0,1 60
18.05.2019 09:00:00 4,3 4,3 6,4 5,5 5,2 4,7 13 7 22 12 SE - 20
18.05.2019 08:00:00 3,7 3,7 4,5 4,7 5,2 4,7 16 9 20 11 ESE 0,1 2
18.05.2019 07:00:00 3,4 3,4 3,8 4,2 5,3 4,7 14 8 22 12 ESE 0,1 0
18.05.2019 06:00:00 3,4 3,3 3,3 3,9 5,5 4,7 18 10 21 11 SE 0,1 0
18.05.2019 05:00:00 4,8 4,2 3,0 4,1 5,6 4,7 18 10 31 17 SE 9 0
18.05.2019 04:00:00 5,7 3,5 3,5 4,4 5,8 4,7 22 12 38 20 SE 44 0
18.05.2019 03:00:00 5,2 4,9 3,9 4,8 5,9 4,7 34 18 41 22 SSE 10 0
18.05.2019 02:00:00 4,8 4,7 4,1 5,1 6,0 4,7 33 18 45 24 ESE 0,3 0
18.05.2019 01:00:00 5,2 4,3 4,2 5,5 6,1 4,7 37 20 54 29 ESE 21 0
18.05.2019 00:00:00 5,5 4,0 4,5 5,6 6,3 4,7 44 24 55 30 ESE 38 0
17.05.2019 23:00:00 5,3 3,5 4,2 6,1 6,3 4,7 41 22 54 29 ESE 35 0
17.05.2019 22:00:00 5,4 3,2 4,3 6,9 6,3 4,7 45 24 52 28 ESE 49 0
17.05.2019 21:00:00 5,5 3,5 4,2 8,2 6,2 4,7 31 17 42 23 ESE 41 49
17.05.2019 20:00:00 6,6 3,9 6,2 9,8 5,9 4,7 32 18 48 26 ESE 48 60
17.05.2019 19:00:00 7,2 4,1 8,0 10,5 5,6 4,7 33 18 47 25 E 36 48
17.05.2019 18:00:00 7,9 4,7 10,6 10,2 5,2 4,8 37 20 44 24 E 31 31
17.05.2019 17:00:00 7,0 4,5 8,1 10,2 4,9 4,8 29 16 47 25 E 25 18
17.05.2019 16:00:00 7,6 4,6 10,8 9,3 4,6 4,8 33 18 46 25 ESE 39 37
17.05.2019 15:00:00 6,8 4,9 10,1 7,7 4,4 4,8 33 18 48 26 ESE 33 13
17.05.2019 14:00:00 5,2 4,5 6,3 6,8 4,2 4,8 30 16 45 24 ESE 11 1
17.05.2019 13:00:00 4,8 4,4 6,8 5,9 4,1 4,8 31 17 54 29 ESE 11 0
17.05.2019 12:00:00 4,1 3,7 5,3 5,7 3,9 4,8 37 20 49 27 ESE 9 0
17.05.2019 11:00:00 3,5 3,2 4,5 5,3 3,8 4,8 41 22 58 31 ESE 5 20
17.05.2019 10:00:00 3,1 3,0 4,3 3,9 3,8 4,8 38 21 52 28 ESE 2,8 1
17.05.2019 09:00:00 2,7 2,6 3,2 3,5 3,8 4,8 37 20 48 26 ESE 0,1 0
17.05.2019 08:00:00 2,5 2,4 2,7 3,2 3,9 4,8 34 18 44 24 ESE 0,1 0
17.05.2019 07:00:00 2,2 2,1 2,3 3,1 3,9 4,8 32 17 41 22 ESE 0,1 0
17.05.2019 06:00:00 2,1 2,0 2,1 3,1 3,9 4,8 25 14 35 19 ESE 0,1 0
17.05.2019 05:00:00 1,9 1,8 2,0 3,2 4,0 4,8 21 12 36 19 ESE 0,1 0
17.05.2019 04:00:00 2,1 2,1 2,1 3,3 4,0 4,8 26 14 39 21 ESE 0,1 0
17.05.2019 03:00:00 2,4 2,4 2,4 3,4 4,1 4,8 28 15 38 20 ESE 0,1 0
17.05.2019 02:00:00 2,3 2,3 2,3 3,5 4,1 4,8 27 15 37 20 ESE 0,1 0
17.05.2019 01:00:00 2,2 2,2 2,2 3,6 4,2 4,8 23 13 32 17 ESE 0,1 0
17.05.2019 00:00:00 2,1 2,0 2,1 3,7 4,2 4,8 24 13 34 19 ESE - 0
16.05.2019 23:00:00 2,1 2,0 2,1 3,9 4,2 4,8 24 13 32 17 ESE 0,1 0
16.05.2019 22:00:00 2,1 2,0 2,2 4,2 4,2 4,9 21 11 30 16 ESE 0,1 0
16.05.2019 21:00:00 2,0 1,9 2,2 4,7 4,1 4,9 21 12 27 14 ESE 0,1 0
16.05.2019 20:00:00 2,0 1,9 2,3 5,2 4,0 4,9 16 9 21 11 ESE 0,1 0
16.05.2019 19:00:00 2,1 2,0 2,8 5,8 3,8 4,9 13 7 17 9 ESE 0,1 0
16.05.2019 18:00:00 2,6 2,5 4,1 5,9 3,6 4,9 10 5 15 8 SSE 0,1 0
16.05.2019 17:00:00 2,5 2,5 3,7 5,7 3,4 4,9 3 1 10 6 SE - 0
16.05.2019 16:00:00 2,4 2,3 3,8 5,8 3,1 4,9 6 3 10 5 E 0,1 0
16.05.2019 15:00:00 2,2 2,2 3,5 5,6 2,9 4,9 6 4 11 6 E 0,1 0
16.05.2019 14:00:00 1,5 1,4 3,4 5,3 2,6 4,9 4 2 10 5 ENE 0,1 0
16.05.2019 13:00:00 0,6 0,6 3,8 4,1 2,5 4,9 4 2 9 5 WNW 0,1 0
16.05.2019 12:00:00 0,0 0,0 2,5 2,8 2,4 4,9 9 5 18 10 WNW 0,1 0
16.05.2019 11:00:00 -0,1 -0,1 0,0 2,0 2,3 4,9 15 8 28 15 WNW 0,1 0
16.05.2019 10:00:00 -0,1 -0,1 0,0 1,4 2,3 4,9 26 14 36 19 WNW 0,1 0
16.05.2019 09:00:00 -0,3 -0,4 -0,1 1,0 2,3 4,9 32 18 38 21 WNW 0,1 0
16.05.2019 08:00:00 -0,3 -0,4 -0,1 0,8 2,3 4,9 27 15 35 19 NW 0,1 0
16.05.2019 07:00:00 -0,4 -0,5 -0,1 0,8 2,4 4,9 22 12 29 16 WNW 0,1 0
16.05.2019 06:00:00 -0,4 -0,5 -0,1 0,8 2,4 4,9 25 13 35 19 NW 0,1 0
16.05.2019 05:00:00 -0,6 -0,7 -0,4 0,8 2,4 4,9 27 15 33 18 NW 0,1 0
16.05.2019 04:00:00 -0,3 -0,5 -0,2 0,8 2,5 4,9 25 14 37 20 NNW 0,1 0
16.05.2019 03:00:00 -0,2 -0,3 -0,1 0,8 2,5 4,9 31 17 40 21 NNW 0,1 0
16.05.2019 02:00:00 -0,3 -0,4 -0,3 0,8 2,5 5,0 31 17 38 20 NNW 0,1 0
16.05.2019 01:00:00 -0,6 -0,8 -0,6 0,8 2,6 5,0 31 17 40 21 NNW 0,1 0
16.05.2019 00:00:00 -0,7 -0,9 -0,7 0,8 2,6 5,0 32 17 42 23 NNW 0,1 0
15.05.2019 23:00:00 -0,8 -1,0 -0,8 0,8 2,6 5,0 34 19 42 23 NNW 0,2 0
15.05.2019 22:00:00 -0,9 -1,1 -0,8 0,9 2,7 5,0 33 18 42 23 N 0,1 0
15.05.2019 21:00:00 -0,8 -1,0 -0,8 0,9 2,7 5,0 35 19 46 25 N 0,1 0
15.05.2019 20:00:00 -0,8 -1,0 -0,8 0,9 2,7 5,0 39 21 49 27 N 0,1 0
15.05.2019 19:00:00 -0,7 -0,9 -0,5 0,9 2,7 5,0 39 21 49 27 N 0,1 0
15.05.2019 18:00:00 -0,8 -1,0 -0,6 1,0 2,7 5,0 35 19 47 26 N 0,1 0
15.05.2019 17:00:00 -1,0 -1,2 -0,7 0,9 2,7 5,0 36 19 45 24 NNW 0,1 0
15.05.2019 16:00:00 -1,1 -1,3 -0,7 0,8 2,8 5,0 34 19 44 24 NNW 0,1 0
15.05.2019 15:00:00 -1,3 -1,5 -0,7 0,7 2,8 5,0 34 18 44 24 NNW 0,1 0
15.05.2019 14:00:00 -1,7 -2,0 -1,1 0,7 2,9 5,0 31 17 39 21 NW 0,1 0
15.05.2019 13:00:00 -2,0 -2,3 -1,4 0,7 2,9 5,0 30 16 41 22 NW 0,1 0
15.05.2019 12:00:00 -2,8 -3,3 -2,3 0,7 3,0 5,0 29 16 39 21 NNW 0,2 0
15.05.2019 11:00:00 -2,7 -4,1 -1,9 0,7 3,1 5,0 34 18 46 25 NNW 8 0
15.05.2019 10:00:00 -3,2 -4,0 -2,6 0,8 3,1 5,0 33 18 50 27 NNW 20 0
15.05.2019 09:00:00 -3,3 -3,7 -2,8 0,8 3,2 5,0 34 18 46 25 NNW 0,5 0
15.05.2019 08:00:00 -3,4 -4,0 -3,0 0,8 3,3 5,0 30 16 43 23 NNW 0,6 0
15.05.2019 07:00:00 -2,9 -3,9 -2,7 0,9 3,4 5,0 28 15 37 20 N 33 0
15.05.2019 06:00:00 -2,7 -3,2 -2,6 0,9 3,5 5,0 24 13 32 18 N 14 0
15.05.2019 05:00:00 -3,2 -4,2 -3,2 0,9 3,6 5,0 21 11 32 17 N 38 0
15.05.2019 04:00:00 -3,4 -4,8 -3,9 1,0 3,7 5,0 23 12 35 19 N 55 0
15.05.2019 03:00:00 -2,9 -4,7 -3,6 1,1 3,8 5,0 27 15 35 19 N 51 0
15.05.2019 02:00:00 -2,8 -4,4 -3,6 1,2 4,0 5,0 26 14 39 21 NNE 48 0
15.05.2019 01:00:00 -2,4 -4,1 -3,2 1,3 4,1 5,0 29 15 41 22 N 51 0
15.05.2019 00:00:00 -1,8 -3,6 -2,6 1,5 4,2 5,0 29 16 45 25 N 49 0
14.05.2019 23:00:00 -1,4 -3,1 -2,2 1,8 4,4 5,0 35 19 48 26 N 57 0
14.05.2019 22:00:00 -0,9 -2,7 -1,6 2,1 4,5 5,0 34 19 47 26 N 52 0
14.05.2019 21:00:00 -0,6 -1,8 -1,2 2,6 4,5 5,0 34 19 44 24 N 48 18
14.05.2019 20:00:00 0,0 -0,1 0,0 3,2 4,6 5,0 34 18 43 23 NNW 0,3 0
14.05.2019 19:00:00 -0,2 -0,3 0,0 3,3 4,7 5,0 31 17 47 25 N 0,2 1
14.05.2019 18:00:00 -0,4 -0,5 -0,2 3,5 4,7 5,0 28 15 49 27 N 0,1 0

tt = Température de l'air
td = dewpoint
tt 5cm = Température de l'air 5cm
tt -5cm = Température de l'air -5cm
tt -20cm = Température de l'air -20cm
tt -100cm = Température de l'air -100cm
ff = Vitesse du vent
fx = gusts
dd = Direction du vent
vv = visibility
sd = Ensoleillement

stations d'obs. à proximité